createdAt,value
2022-09-23T00:02:36.569Z,3.10
2022-09-23T00:07:38.661Z,3.00
2022-09-23T00:12:40.675Z,2.95
2022-09-23T00:17:47.755Z,2.83
2022-09-23T00:22:52.789Z,4.07
2022-09-23T00:28:03.577Z,3.22
2022-09-23T00:33:05.542Z,3.00
2022-09-23T00:38:08.862Z,2.85
2022-09-23T00:43:15.215Z,2.78
2022-09-23T00:48:20.592Z,3.20
2022-09-23T00:53:26.681Z,2.42
2022-09-23T00:58:34.973Z,2.50
2022-09-23T01:03:37.351Z,2.33
2022-09-23T01:08:41.115Z,3.08
2022-09-23T01:13:48.905Z,2.67
2022-09-23T01:22:42.096Z,3.45
2022-09-23T01:28:19.185Z,3.00
2022-09-23T01:33:27.953Z,3.10
2022-09-23T01:39:05.093Z,3.08
2022-09-23T01:44:13.421Z,2.50
2022-09-23T01:49:25.726Z,2.80
2022-09-23T01:54:38.639Z,4.10
2022-09-23T01:59:48.022Z,3.20
2022-09-23T02:05:02.572Z,3.40
2022-09-23T02:10:12.350Z,3.95
2022-09-23T02:15:18.345Z,4.20
2022-09-23T02:20:30.541Z,4.40
2022-09-23T02:25:50.494Z,4.20
2022-09-23T02:31:07.801Z,5.63
2022-09-23T02:36:31.539Z,5.15
2022-09-23T02:42:02.860Z,5.20
2022-09-23T02:47:08.001Z,5.25
2022-09-23T02:52:12.043Z,4.40
2022-09-23T02:57:14.643Z,4.93
2022-09-23T03:02:45.464Z,4.30
2022-09-23T03:08:17.280Z,4.22
2022-09-23T03:13:47.721Z,3.47
2022-09-23T03:19:33.901Z,3.60
2022-09-23T03:24:41.514Z,3.72
2022-09-23T03:29:57.823Z,3.10
2022-09-23T03:35:02.765Z,3.22
2022-09-23T03:40:17.950Z,5.72
2022-09-23T03:45:32.810Z,3.63
2022-09-23T03:50:46.580Z,3.38
2022-09-23T03:55:52.394Z,3.00
2022-09-23T04:00:59.489Z,3.28
2022-09-23T04:06:02.882Z,2.83
2022-09-23T04:11:19.056Z,3.45
2022-09-23T04:16:24.984Z,3.60
2022-09-23T04:27:25.076Z,3.65
2022-09-23T04:32:27.844Z,3.55
2022-09-23T04:37:33.589Z,4.07
2022-09-23T04:42:37.656Z,3.90
2022-09-23T04:47:41.766Z,3.90
2022-09-23T04:52:44.877Z,4.13
2022-09-23T05:03:43.686Z,3.43
2022-09-23T05:08:58.167Z,3.70
2022-09-23T05:25:27.390Z,3.13
2022-09-23T05:30:38.892Z,3.13
2022-09-23T05:35:51.506Z,3.08
2022-09-23T05:41:06.130Z,3.20
2022-09-23T05:46:21.715Z,3.67
2022-09-23T05:51:30.628Z,3.53
2022-09-23T05:56:35.822Z,3.65
2022-09-23T06:01:41.892Z,3.22
2022-09-23T06:06:45.782Z,3.45
2022-09-23T06:11:50.987Z,4.07
2022-09-23T06:16:53.874Z,3.92
2022-09-23T06:21:58.537Z,4.35
2022-09-23T06:27:03.642Z,4.63
2022-09-23T06:32:07.693Z,4.32
2022-09-23T06:37:19.255Z,4.95
2022-09-23T06:42:25.964Z,3.35
2022-09-23T06:47:32.759Z,3.88
2022-09-23T06:52:36.946Z,5.35
2022-09-23T06:57:39.766Z,3.75
2022-09-23T07:02:46.078Z,3.85
2022-09-23T07:07:50.167Z,3.30
2022-09-23T07:12:53.773Z,3.33
2022-09-23T07:17:56.339Z,3.45
2022-09-23T07:23:00.575Z,3.42
2022-09-23T07:28:08.560Z,3.30
2022-09-23T07:33:28.578Z,3.47
2022-09-23T07:38:37.427Z,3.42
2022-09-23T07:43:47.315Z,3.40
2022-09-23T07:48:50.042Z,3.13
2022-09-23T07:53:54.154Z,3.30
2022-09-23T07:59:07.730Z,3.05
2022-09-23T08:04:20.941Z,3.63
2022-09-23T08:09:28.576Z,2.78
2022-09-23T08:14:34.885Z,3.15
2022-09-23T08:30:42.127Z,3.20
2022-09-23T08:35:50.542Z,3.85
2022-09-23T08:41:37.659Z,3.35
2022-09-23T08:46:52.963Z,2.70
2022-09-23T08:51:57.843Z,3.58
2022-09-23T08:57:08.556Z,3.10
2022-09-23T09:02:22.847Z,3.10
2022-09-23T09:07:37.719Z,2.80
2022-09-23T09:13:01.423Z,2.28
2022-09-23T09:18:32.654Z,1.73
2022-09-23T09:24:04.268Z,1.45
2022-09-23T09:29:35.098Z,1.98
2022-09-23T09:34:48.054Z,2.00
2022-09-23T09:39:52.986Z,2.30
2022-09-23T09:45:10.461Z,1.95
2022-09-23T09:50:41.240Z,2.05
2022-09-23T09:56:13.870Z,2.03
2022-09-23T10:01:24.975Z,2.28
2022-09-23T10:06:39.970Z,2.25
2022-09-23T10:11:43.955Z,2.22
2022-09-23T10:17:06.667Z,2.42
2022-09-23T10:22:45.894Z,1.60
2022-09-23T10:27:48.770Z,1.77
2022-09-23T10:32:55.387Z,2.15
2022-09-23T10:38:05.020Z,2.28
2022-09-23T10:43:59.790Z,2.28
2022-09-23T10:49:31.742Z,2.05
2022-09-23T10:54:42.954Z,1.92
2022-09-23T11:06:08.207Z,2.15
2022-09-23T11:11:28.006Z,1.83
2022-09-23T11:17:05.850Z,2.65
2022-09-23T11:22:38.054Z,1.98
2022-09-23T11:27:44.099Z,2.10
2022-09-23T11:33:33.091Z,1.90
2022-09-23T11:38:51.264Z,2.10
2022-09-23T11:44:10.475Z,1.80
2022-09-23T11:49:33.315Z,2.00
2022-09-23T11:54:49.355Z,2.00
2022-09-23T12:00:09.036Z,2.20
2022-09-23T12:05:31.844Z,2.05
2022-09-23T12:11:23.329Z,1.73
2022-09-23T12:17:04.508Z,1.90
2022-09-23T12:28:26.662Z,2.30
2022-09-23T12:33:35.113Z,1.85
2022-09-23T12:38:51.851Z,2.00
2022-09-23T12:44:00.012Z,2.38
2022-09-23T12:49:06.715Z,1.80
2022-09-23T12:54:28.288Z,2.00
2022-09-23T13:00:03.164Z,1.77
2022-09-23T13:05:42.579Z,2.00
2022-09-23T13:21:46.775Z,1.80
2022-09-23T13:27:07.045Z,1.80
2022-09-23T13:32:39.435Z,1.75
2022-09-23T13:37:56.746Z,1.70
2022-09-23T13:43:04.829Z,2.10
2022-09-23T13:48:59.546Z,1.60
2022-09-23T13:54:38.268Z,1.70
2022-09-23T13:59:42.402Z,1.88
2022-09-23T14:04:48.330Z,1.65
2022-09-23T14:09:58.285Z,1.65
2022-09-23T14:15:04.315Z,2.00
2022-09-23T14:25:47.674Z,1.60
2022-09-23T14:31:03.727Z,1.80
2022-09-23T14:36:37.218Z,1.65
2022-09-23T14:41:44.724Z,1.63
2022-09-23T14:47:06.188Z,2.00
2022-09-23T14:52:22.414Z,1.50
2022-09-23T14:57:34.513Z,1.58
2022-09-23T15:02:58.103Z,2.15
2022-09-23T15:08:06.791Z,2.00
2022-09-23T15:13:17.253Z,2.13
2022-09-23T15:18:30.659Z,1.80
2022-09-23T15:23:59.158Z,1.65
2022-09-23T15:29:03.039Z,1.58
2022-09-23T15:34:17.891Z,1.75
2022-09-23T15:39:32.043Z,1.67
2022-09-23T15:44:45.640Z,1.98
2022-09-23T15:49:54.025Z,1.60
2022-09-23T15:54:57.387Z,1.50
2022-09-23T16:00:04.048Z,1.60
2022-09-23T16:05:49.087Z,1.67
2022-09-23T16:11:00.567Z,1.98
2022-09-23T16:16:08.549Z,2.25
2022-09-23T16:27:18.495Z,1.80
2022-09-23T16:32:24.744Z,1.65
2022-09-23T16:37:37.544Z,1.95
2022-09-23T16:42:42.635Z,1.80
2022-09-23T16:47:53.495Z,2.30
2022-09-23T16:52:56.981Z,2.22
2022-09-23T16:58:01.290Z,2.25
2022-09-23T17:03:26.216Z,1.75
2022-09-23T17:08:31.333Z,1.98
2022-09-23T17:13:36.823Z,2.25
2022-09-23T17:18:44.399Z,2.30
2022-09-23T17:23:47.884Z,1.90
2022-09-23T17:28:58.749Z,1.83
2022-09-23T17:34:09.556Z,2.00
2022-09-23T17:39:17.598Z,2.55
2022-09-23T17:44:22.085Z,1.90
2022-09-23T17:49:26.065Z,2.50
2022-09-23T17:54:45.410Z,2.53
2022-09-23T17:59:53.987Z,2.10
2022-09-23T18:05:03.680Z,2.40
2022-09-23T18:10:10.692Z,2.40
2022-09-23T18:15:18.174Z,3.20
2022-09-23T18:20:24.141Z,3.15
2022-09-23T18:25:39.978Z,2.88
2022-09-23T18:30:57.911Z,2.45
2022-09-23T18:36:11.812Z,2.10
2022-09-23T18:41:17.888Z,2.78
2022-09-23T18:46:41.197Z,2.65
2022-09-23T18:51:56.563Z,2.20
2022-09-23T18:57:03.631Z,2.53
2022-09-23T19:02:11.358Z,3.00
2022-09-23T19:07:19.279Z,2.38
2022-09-23T19:12:23.852Z,2.50
2022-09-23T19:17:36.593Z,2.20
2022-09-23T19:22:42.819Z,2.60
2022-09-23T19:27:44.880Z,2.40
2022-09-23T19:32:50.404Z,2.50
2022-09-23T19:37:57.871Z,2.60
2022-09-23T19:43:02.315Z,2.28
2022-09-23T19:48:09.551Z,2.30
2022-09-23T19:53:14.243Z,3.08
2022-09-23T19:58:21.317Z,2.83
2022-09-23T20:03:26.206Z,2.70
2022-09-23T20:08:29.948Z,2.38
2022-09-23T20:13:35.147Z,3.10
2022-09-23T20:18:39.040Z,3.10
2022-09-23T20:23:42.892Z,2.88
2022-09-23T20:28:46.709Z,3.72
2022-09-23T20:33:51.709Z,4.22
2022-09-23T20:39:04.944Z,3.70
2022-09-23T20:44:20.487Z,3.22
2022-09-23T20:49:30.176Z,3.22
2022-09-23T20:54:36.017Z,3.20
2022-09-23T20:59:54.086Z,3.53
2022-09-23T21:05:04.395Z,3.00
2022-09-23T21:10:13.555Z,3.10
2022-09-23T21:15:34.363Z,2.97
2022-09-23T21:20:40.868Z,2.78
2022-09-23T21:25:44.932Z,2.75
2022-09-23T21:30:52.094Z,3.17
2022-09-23T21:35:56.110Z,2.75
2022-09-23T21:41:02.133Z,3.28
2022-09-23T21:46:09.463Z,3.15
2022-09-23T21:51:15.390Z,2.85
2022-09-23T21:56:31.109Z,3.00
2022-09-23T22:01:42.544Z,2.42
2022-09-23T22:06:49.499Z,2.40
2022-09-23T22:12:13.974Z,2.80
2022-09-23T22:17:23.369Z,2.30
2022-09-23T22:22:31.156Z,2.85
2022-09-23T22:28:06.121Z,2.45
2022-09-23T22:33:09.335Z,2.65
2022-09-23T22:38:17.981Z,2.30
2022-09-23T22:43:24.501Z,2.47
2022-09-23T22:48:32.720Z,2.22
2022-09-23T22:53:43.344Z,2.50
2022-09-23T22:58:53.229Z,2.03
2022-09-23T23:03:56.977Z,1.90
2022-09-23T23:09:00.516Z,2.70
2022-09-23T23:14:03.294Z,2.53
2022-09-23T23:19:15.011Z,2.40
2022-09-23T23:24:21.134Z,2.72
2022-09-23T23:29:26.430Z,2.08
2022-09-23T23:34:32.893Z,2.25
2022-09-23T23:39:36.711Z,2.22
2022-09-23T23:44:43.272Z,1.70
2022-09-23T23:49:51.102Z,2.20
2022-09-23T23:55:03.376Z,2.90
